createdAt,value
2017-10-23T12:26:48.520Z,18.54
2017-10-23T12:28:01.359Z,18.48
2017-10-23T12:29:14.623Z,18.57
2017-10-23T12:30:27.381Z,18.17
2017-10-23T12:31:41.250Z,18.07
2017-10-23T12:32:54.079Z,18.2
2017-10-23T12:34:07.373Z,18.36
2017-10-23T12:35:20.266Z,18.54
2017-10-23T12:36:32.990Z,18.57
2017-10-23T12:37:45.738Z,18.58
2017-10-23T12:38:58.450Z,18.36
2017-10-23T12:40:10.650Z,18.37
2017-10-23T12:41:23.289Z,18.23
2017-10-23T12:42:36.576Z,18.15
2017-10-23T12:43:48.773Z,18.07
2017-10-23T12:45:02.628Z,18.14
2017-10-23T12:46:14.860Z,18.23
2017-10-23T12:47:27.620Z,18.33
2017-10-23T12:48:40.351Z,18.41
2017-10-23T12:49:53.613Z,18.51
2017-10-23T12:51:06.365Z,18.72
2017-10-23T12:52:19.663Z,18.67
2017-10-23T12:53:31.754Z,18.78
2017-10-23T12:54:45.040Z,18.57
2017-10-23T12:55:57.749Z,18.67
2017-10-23T12:57:09.423Z,18.7
2017-10-23T12:58:21.644Z,18.88
2017-10-23T12:59:34.915Z,19.06
2017-10-23T13:00:48.177Z,19.04
2017-10-23T13:02:00.901Z,18.99
2017-10-23T13:03:13.141Z,18.81
2017-10-23T13:04:26.399Z,18.67
2017-10-23T13:05:38.629Z,18.6
2017-10-23T13:06:51.389Z,18.21
2017-10-23T13:08:04.120Z,18.11
2017-10-23T13:09:17.385Z,17.99
2017-10-23T13:10:29.592Z,17.92
2017-10-23T13:11:41.810Z,17.95
2017-10-23T13:13:25.735Z,18.2
2017-10-23T13:14:38.348Z,18.32
2017-10-23T13:15:51.095Z,18.36
2017-10-23T13:17:03.672Z,18.5
2017-10-23T13:18:16.392Z,18.58
2017-10-23T13:19:29.175Z,18.6
2017-10-23T13:20:41.944Z,18.73
2017-10-23T13:21:53.106Z,18.62
2017-10-23T13:23:05.861Z,18.63
2017-10-23T13:24:18.629Z,18.48
2017-10-23T13:25:30.310Z,18.21
2017-10-23T13:26:43.053Z,18.03
2017-10-23T13:27:56.330Z,17.92
2017-10-23T13:29:09.614Z,17.7
2017-10-23T13:30:22.842Z,17.56
2017-10-23T13:31:35.564Z,17.33
2017-10-23T13:32:48.354Z,17.16
2017-10-23T13:34:01.107Z,17.25
2017-10-23T13:35:13.817Z,17.26
2017-10-23T13:36:26.037Z,17.46
2017-10-23T13:37:37.724Z,17.51
2017-10-23T13:38:51.005Z,17.63
2017-10-23T13:40:03.198Z,17.64
2017-10-23T13:41:15.420Z,17.79
2017-10-23T13:44:11.002Z,17.72
2017-10-23T13:45:24.290Z,17.48
2017-10-23T13:46:37.007Z,17.54
2017-10-23T13:47:49.211Z,17.51
2017-10-23T13:49:01.395Z,17.4
2017-10-23T13:50:14.658Z,17.11
2017-10-23T13:51:27.382Z,17.01
2017-10-23T13:52:40.663Z,16.94
2017-10-23T13:53:53.919Z,16.98
2017-10-23T13:55:07.192Z,16.88
2017-10-23T13:56:20.025Z,17.03
2017-10-23T13:57:32.835Z,17.08
2017-10-23T13:58:46.118Z,17
2017-10-23T13:59:58.333Z,16.88
2017-10-23T14:01:11.633Z,16.86
2017-10-23T14:02:24.566Z,16.78
2017-10-23T14:03:36.254Z,16.85
2017-10-23T14:04:49.010Z,16.83
2017-10-23T14:06:02.268Z,16.85
2017-10-23T14:07:45.097Z,16.83
2017-10-23T14:08:56.791Z,16.71
2017-10-23T14:10:08.479Z,16.71
2017-10-23T14:11:20.147Z,16.75
2017-10-23T14:12:32.338Z,16.71
2017-10-23T14:13:45.087Z,16.48
2017-10-23T14:14:58.402Z,16.35
2017-10-23T14:16:10.498Z,16.14
2017-10-23T14:17:22.704Z,16.09
2017-10-23T14:18:34.410Z,16
2017-10-23T14:19:47.136Z,15.97
2017-10-23T14:20:59.368Z,16.08
2017-10-23T14:22:12.125Z,16.05
2017-10-23T14:23:24.766Z,16.24
2017-10-23T14:24:36.971Z,16.33
2017-10-23T14:25:50.188Z,16.33
2017-10-23T14:27:03.528Z,16.35
2017-10-23T14:28:15.316Z,16.35
2017-10-23T14:30:41.986Z,16.56
2017-10-23T14:31:55.292Z,16.68
2017-10-23T14:33:07.416Z,16.7
2017-10-23T14:34:19.633Z,16.5
2017-10-23T14:35:32.798Z,16.24
2017-10-23T14:36:46.058Z,16.23
2017-10-23T14:37:58.812Z,16.28
2017-10-23T14:39:11.553Z,16.2
2017-10-23T14:40:23.773Z,16.14
2017-10-23T14:41:35.983Z,16.17
2017-10-23T14:42:48.637Z,16.14
2017-10-23T14:44:01.371Z,16.15
2017-10-23T14:45:14.188Z,16.23
2017-10-23T14:46:27.479Z,16.34
2017-10-23T14:47:40.906Z,16.31
2017-10-23T14:48:54.175Z,16.46
2017-10-23T14:50:07.477Z,16.49
2017-10-23T14:51:19.716Z,16.24
2017-10-23T14:52:32.976Z,16.21
2017-10-23T14:53:45.718Z,16.23
2017-10-23T14:54:59.543Z,16.02
2017-10-23T14:56:12.309Z,16.05
2017-10-23T14:57:25.596Z,16
2017-10-23T14:58:39.490Z,16.08
2017-10-23T14:59:52.765Z,16.07
2017-10-23T15:01:05.505Z,16.05
2017-10-23T15:02:18.220Z,16.14
2017-10-23T15:03:31.480Z,16.17
2017-10-23T15:04:43.726Z,16.21
2017-10-23T15:05:56.997Z,16.35
2017-10-23T15:07:09.737Z,16.48
2017-10-23T15:08:21.963Z,16.52
2017-10-23T15:09:35.329Z,16.48
2017-10-23T15:10:47.014Z,16.56
2017-10-23T15:12:00.283Z,16.71
2017-10-23T15:13:12.459Z,16.78
2017-10-23T15:14:25.747Z,16.68
2017-10-23T15:15:38.556Z,16.81
2017-10-23T15:16:51.870Z,16.88
2017-10-23T15:18:04.086Z,16.85
2017-10-23T15:19:17.355Z,16.93
2017-10-23T15:20:30.569Z,16.91
2017-10-23T15:21:42.784Z,16.89
2017-10-23T15:22:56.047Z,16.81
2017-10-23T15:24:09.280Z,16.78
2017-10-23T15:25:22.050Z,16.56
2017-10-23T15:26:35.287Z,16.48
2017-10-23T15:27:47.504Z,16.39
2017-10-23T15:29:00.244Z,16.46
2017-10-23T15:30:13.481Z,16.56
2017-10-23T15:31:26.216Z,16.64
2017-10-23T15:32:38.972Z,16.91
2017-10-23T15:33:51.181Z,17.28
2017-10-23T15:35:04.417Z,17.58
2017-10-23T15:36:16.113Z,17.75
2017-10-23T15:37:28.832Z,17.87
2017-10-23T15:38:40.005Z,17.66
2017-10-23T15:39:53.356Z,17.51
2017-10-23T15:41:05.555Z,17.31
2017-10-23T15:42:18.857Z,17
2017-10-23T15:43:32.118Z,16.81
2017-10-23T15:44:44.348Z,16.96
2017-10-23T15:45:57.137Z,17.3
2017-10-23T15:47:09.339Z,17.93
2017-10-23T15:48:21.561Z,18.33
2017-10-23T15:49:34.827Z,18.36
2017-10-23T15:50:46.517Z,18.08
2017-10-23T15:51:59.268Z,17.89
2017-10-23T15:53:12.530Z,17.89
2017-10-23T15:54:25.268Z,17.81
2017-10-23T15:55:37.576Z,17.7
2017-10-23T15:56:49.787Z,17.74
2017-10-23T15:58:03.116Z,17.79
2017-10-23T15:59:14.273Z,17.72
2017-10-23T16:00:27.537Z,17.46
2017-10-23T16:01:40.829Z,17.38
2017-10-23T16:02:53.612Z,17.14
2017-10-23T16:04:05.812Z,17.06
2017-10-23T16:05:17.496Z,16.94
2017-10-23T16:06:30.216Z,16.6
2017-10-23T16:07:42.468Z,16.53
2017-10-23T16:08:53.615Z,16.49
2017-10-23T16:10:06.349Z,16.33
2017-10-23T16:11:19.558Z,16.25
2017-10-23T16:12:32.824Z,16.12
2017-10-23T16:13:46.196Z,16.12
2017-10-23T16:14:59.472Z,16.09
2017-10-23T16:16:12.232Z,16.12
2017-10-23T16:17:25.504Z,16.07
2017-10-23T16:18:38.253Z,16.15
2017-10-23T16:19:49.366Z,16.43
2017-10-23T16:21:01.623Z,16.53
2017-10-23T16:22:14.391Z,16.6
2017-10-23T16:23:26.586Z,16.7
2017-10-23T16:24:39.283Z,16.88
2017-10-23T16:25:52.031Z,17.11
2017-10-23T16:27:04.223Z,17.04
2017-10-23T16:28:17.500Z,16.94
2017-10-23T16:29:31.317Z,16.86
2017-10-23T16:30:45.561Z,16.83
2017-10-23T16:31:58.850Z,16.73
2017-10-23T16:33:12.132Z,16.71
2017-10-23T16:34:23.796Z,16.75
2017-10-23T16:35:36.538Z,16.61
2017-10-23T16:36:49.284Z,16.53
2017-10-23T16:38:02.046Z,16.61
2017-10-23T16:39:14.234Z,16.67
2017-10-23T16:40:27.508Z,16.79
2017-10-23T16:41:40.778Z,17.18
2017-10-23T16:42:52.451Z,17.43
2017-10-23T16:44:04.688Z,17.51
2017-10-23T16:45:17.929Z,17.49
2017-10-23T16:46:32.420Z,17.7
2017-10-23T16:47:44.611Z,17.63
2017-10-23T16:49:29.073Z,17.71
2017-10-23T16:50:42.316Z,17.68
2017-10-23T16:51:54.373Z,17.63
2017-10-23T16:53:07.617Z,17.22
2017-10-23T16:54:20.870Z,16.93
2017-10-23T16:55:34.234Z,16.85
2017-10-23T16:56:47.653Z,16.76
2017-10-23T16:57:59.832Z,16.67
2017-10-23T16:59:12.655Z,16.49
2017-10-23T17:00:25.996Z,16.48
2017-10-23T17:01:38.812Z,16.38
2017-10-23T17:02:51.567Z,16.3
2017-10-23T17:04:04.936Z,16.2
2017-10-23T17:05:17.053Z,16.14
2017-10-23T17:06:29.804Z,16.33
2017-10-23T17:07:42.034Z,16.34
2017-10-23T17:08:55.453Z,16.46
2017-10-23T17:10:08.231Z,16.64
2017-10-23T17:11:20.429Z,16.61
2017-10-23T17:12:32.682Z,16.58
2017-10-23T17:13:44.362Z,16.56
2017-10-23T17:14:57.646Z,16.48
2017-10-23T17:16:10.484Z,16.3
2017-10-23T17:17:23.751Z,16.28
2017-10-23T17:18:37.009Z,16.46
2017-10-23T17:19:49.753Z,16.48
2017-10-23T17:21:01.423Z,16.46
2017-10-23T17:22:13.645Z,16.49
2017-10-23T17:23:27.538Z,16.43
2017-10-23T17:24:40.266Z,16.39
2017-10-23T17:25:52.878Z,16.39
2017-10-23T17:27:06.148Z,16.31
2017-10-23T17:28:18.348Z,16.33
2017-10-23T17:29:31.646Z,16.38
2017-10-23T17:30:45.546Z,16.35
2017-10-23T17:32:02.946Z,16.45
2017-10-23T17:33:16.194Z,16.35
2017-10-23T17:34:28.396Z,16.24
2017-10-23T17:35:41.153Z,16.24
2017-10-23T17:36:53.912Z,16.34
2017-10-23T17:38:06.773Z,16.14
2017-10-23T17:39:20.720Z,16.07
2017-10-23T17:40:33.434Z,16.05
2017-10-23T17:41:46.162Z,16.11
2017-10-23T17:43:00.020Z,16
2017-10-23T17:44:12.781Z,16
2017-10-23T17:45:24.975Z,15.84
2017-10-23T17:46:38.230Z,15.75
2017-10-23T17:47:52.122Z,15.72
2017-10-23T17:49:05.393Z,15.74
2017-10-23T17:50:17.542Z,15.75
2017-10-23T17:51:30.297Z,15.65
2017-10-23T17:52:44.168Z,15.54
2017-10-23T17:53:56.895Z,15.43
2017-10-23T17:55:08.566Z,15.44
2017-10-23T17:56:21.317Z,15.44
2017-10-23T17:57:34.563Z,15.51
2017-10-23T17:58:46.734Z,15.51
2017-10-23T17:59:59.043Z,15.54
2017-10-23T18:01:11.211Z,15.64
2017-10-23T18:02:23.971Z,15.64
2017-10-23T18:03:36.696Z,15.67
2017-10-23T18:04:49.422Z,15.69
2017-10-23T18:06:02.115Z,15.75
2017-10-23T18:07:15.380Z,15.84
2017-10-23T18:08:29.247Z,15.92
2017-10-23T18:09:41.963Z,15.87
2017-10-23T18:10:55.248Z,15.65
2017-10-23T18:12:07.448Z,15.53
2017-10-23T18:13:20.718Z,15.53
2017-10-23T18:14:34.590Z,15.47
2017-10-23T18:15:47.829Z,15.5
2017-10-23T18:17:00.040Z,15.64
2017-10-23T18:18:12.204Z,15.68
2017-10-23T18:19:25.460Z,15.74
2017-10-23T18:20:38.162Z,15.75
2017-10-23T18:21:51.413Z,15.86
2017-10-23T18:23:03.590Z,15.84
2017-10-23T18:24:16.291Z,15.9
2017-10-23T18:25:29.530Z,15.86
2017-10-23T18:26:42.794Z,15.94
2017-10-23T18:27:55.553Z,16.05
2017-10-23T18:29:07.696Z,16.11
2017-10-23T18:30:20.409Z,16.01
2017-10-23T18:31:32.704Z,16.02
2017-10-23T18:32:45.444Z,16.04
2017-10-23T18:33:58.180Z,16.02
2017-10-23T18:35:10.324Z,16.02
2017-10-23T18:36:22.522Z,16.11
2017-10-23T18:37:34.715Z,15.97
2017-10-23T18:38:47.448Z,16.14
2017-10-23T18:40:00.678Z,16.24
2017-10-23T18:41:13.430Z,16.24
2017-10-23T18:42:26.813Z,16.17
2017-10-23T18:43:38.480Z,16.11
2017-10-23T18:44:50.680Z,16.11
2017-10-23T18:46:02.887Z,16.14
2017-10-23T18:47:16.206Z,16.17
2017-10-23T18:48:28.922Z,16.14
2017-10-23T18:49:41.612Z,16.02
2017-10-23T18:50:53.833Z,16.04
2017-10-23T18:52:07.049Z,16.02
2017-10-23T18:53:19.620Z,16.01
2017-10-23T18:54:32.367Z,16
2017-10-23T18:55:45.701Z,16.09
2017-10-23T18:56:57.410Z,16.14
2017-10-23T18:58:10.120Z,16.08
2017-10-23T18:59:22.862Z,15.9
2017-10-23T19:00:36.105Z,15.78
2017-10-23T19:01:49.353Z,15.57
2017-10-23T19:03:02.172Z,15.5
2017-10-23T19:04:15.488Z,15.35
2017-10-23T19:05:28.214Z,15.31
2017-10-23T19:06:40.958Z,15.31
2017-10-23T19:07:53.678Z,15.29
2017-10-23T19:09:07.007Z,15.35
2017-10-23T19:10:20.229Z,15.41
2017-10-23T19:11:32.345Z,15.39
2017-10-23T19:12:45.503Z,15.44
2017-10-23T19:13:58.766Z,15.44
2017-10-23T19:15:12.120Z,15.38
2017-10-23T19:16:25.261Z,15.44
2017-10-23T19:18:08.617Z,15.41
2017-10-23T19:19:21.934Z,15.34
2017-10-23T19:20:35.303Z,15.39
2017-10-23T19:21:47.513Z,15.44
2017-10-23T19:23:00.252Z,15.47
2017-10-23T19:24:13.003Z,15.44
2017-10-23T19:25:25.724Z,15.5
2017-10-23T19:26:37.385Z,15.49
2017-10-23T19:27:49.562Z,15.43
2017-10-23T19:29:02.286Z,15.2
2017-10-23T19:30:14.378Z,15.16
2017-10-23T19:31:27.655Z,15.01
2017-10-23T19:32:40.835Z,15.06
2017-10-23T19:33:53.060Z,15.06
2017-10-23T19:35:06.339Z,15.07
2017-10-23T19:36:19.629Z,15.09
2017-10-23T19:37:32.359Z,15.14
2017-10-23T19:38:45.102Z,15.2
2017-10-23T19:39:57.837Z,15.1
2017-10-23T19:41:10.034Z,15.16
2017-10-23T19:42:22.275Z,15.2
2017-10-23T19:43:34.506Z,15.2
2017-10-23T19:44:46.170Z,15.23
2017-10-23T19:45:58.354Z,15.27
2017-10-23T19:47:10.568Z,15.35
2017-10-23T19:48:23.850Z,15.27
2017-10-23T19:49:36.611Z,15.28
2017-10-23T19:50:48.823Z,15.32
2017-10-23T19:52:01.032Z,15.32
2017-10-23T19:53:13.784Z,15.35
2017-10-23T19:54:26.522Z,15.31
2017-10-23T19:55:38.211Z,15.2
2017-10-23T19:56:50.950Z,15.14
2017-10-23T19:58:04.219Z,15.19
2017-10-23T19:59:16.447Z,15.17
2017-10-23T20:00:28.126Z,15.14
2017-10-23T20:01:40.340Z,15.13
2017-10-23T20:02:52.522Z,15.06
2017-10-23T20:04:05.818Z,15.03
2017-10-23T20:05:18.543Z,15.09
2017-10-23T20:06:31.813Z,15.1
2017-10-23T20:07:44.590Z,15.17
2017-10-23T20:08:57.307Z,15.11
2017-10-23T20:10:10.063Z,15.25
2017-10-23T20:11:22.806Z,15.23
2017-10-23T20:12:35.544Z,15.27
2017-10-23T20:13:48.267Z,15.34
2017-10-23T20:15:01.028Z,15.34
2017-10-23T20:16:14.303Z,15.28
2017-10-23T20:17:27.070Z,15.29
2017-10-23T20:18:39.799Z,15.19
2017-10-23T20:19:52.959Z,15.17
2017-10-23T20:21:06.220Z,15.16
2017-10-23T20:22:18.439Z,15.03
2017-10-23T20:23:31.208Z,15.06
2017-10-23T20:24:43.438Z,14.92
2017-10-23T20:25:55.642Z,14.78
2017-10-23T20:27:07.823Z,14.86
2017-10-23T20:28:20.586Z,14.8
2017-10-23T20:29:33.819Z,14.64
2017-10-23T20:30:45.500Z,14.6
2017-10-23T20:31:57.737Z,14.55
2017-10-23T20:33:10.989Z,14.46
2017-10-23T20:34:23.713Z,14.42
2017-10-23T20:35:35.400Z,14.37
2017-10-23T20:36:48.670Z,14.4
2017-10-23T20:38:01.406Z,14.36
2017-10-23T20:39:13.624Z,14.42
2017-10-23T20:40:26.877Z,14.39
2017-10-23T20:41:38.572Z,14.46
2017-10-23T20:42:51.330Z,14.46
2017-10-23T20:44:04.047Z,14.43
2017-10-23T20:45:16.738Z,14.54
2017-10-23T20:46:30.023Z,14.52
2017-10-23T20:47:42.246Z,14.43
2017-10-23T20:48:54.996Z,14.42
2017-10-23T20:50:07.718Z,14.25
2017-10-23T20:51:21.037Z,14.25
2017-10-23T20:52:34.294Z,14.33
2017-10-23T20:53:47.036Z,14.35
2017-10-23T20:54:59.254Z,14.36
2017-10-23T20:56:12.574Z,14.27
2017-10-23T20:57:25.879Z,14.25
2017-10-23T20:58:38.606Z,14.25
2017-10-23T20:59:50.830Z,14.27
2017-10-23T21:01:03.017Z,14.27
2017-10-23T21:02:16.313Z,14.22
2017-10-23T21:03:29.647Z,14.2
2017-10-23T21:04:42.398Z,14.14
2017-10-23T21:05:55.151Z,14.09
2017-10-23T21:07:07.338Z,14.14
2017-10-23T21:08:20.569Z,14.1
2017-10-23T21:09:33.307Z,14.02
2017-10-23T21:10:45.498Z,14.03
2017-10-23T21:11:58.258Z,14.04
2017-10-23T21:13:10.407Z,14.02
2017-10-23T21:14:23.672Z,14.03
2017-10-23T21:15:36.434Z,14.06
2017-10-23T21:16:48.641Z,14.06
2017-10-23T21:18:00.862Z,14.03
2017-10-23T21:19:13.620Z,14.06
2017-10-23T21:20:26.867Z,14.09
2017-10-23T21:21:40.129Z,14.04
2017-10-23T21:22:52.857Z,14.02
2017-10-23T21:24:05.602Z,14.02
2017-10-23T21:25:18.878Z,14.09
2017-10-23T21:26:31.097Z,14.06
2017-10-23T21:27:43.814Z,14.09
2017-10-23T21:28:57.102Z,14.02
2017-10-23T21:30:09.839Z,14.07
2017-10-23T21:31:22.053Z,13.89
2017-10-23T21:32:35.339Z,13.89
2017-10-23T21:33:48.081Z,13.88
2017-10-23T21:35:00.295Z,13.99
2017-10-23T21:36:13.040Z,13.96
2017-10-23T21:37:25.225Z,13.95
2017-10-23T21:38:36.378Z,13.91
2017-10-23T21:39:49.124Z,13.91
2017-10-23T21:41:01.857Z,13.88
2017-10-23T21:42:14.086Z,13.92
2017-10-23T21:43:26.810Z,13.82
2017-10-23T21:44:39.560Z,13.81
2017-10-23T21:45:51.242Z,13.81
2017-10-23T21:47:02.915Z,13.81
2017-10-23T21:48:15.135Z,13.89
2017-10-23T21:49:28.471Z,13.88
2017-10-23T21:50:41.212Z,13.96
2017-10-23T21:51:53.936Z,13.91
2017-10-23T21:53:07.174Z,13.96
2017-10-23T21:54:19.373Z,13.96
2017-10-23T21:55:32.121Z,13.92
2017-10-23T21:56:44.902Z,13.95
2017-10-23T21:57:57.669Z,13.97
2017-10-23T21:59:09.335Z,13.89
2017-10-23T22:00:22.803Z,13.95
2017-10-23T22:01:35.564Z,13.92
2017-10-23T22:02:48.823Z,13.97
2017-10-23T22:04:01.018Z,13.96
2017-10-23T22:05:13.722Z,13.88
2017-10-23T22:06:26.455Z,13.89
2017-10-23T22:07:39.738Z,14.02
2017-10-23T22:08:53.003Z,13.99
2017-10-23T22:10:05.753Z,13.91
2017-10-23T22:11:18.484Z,13.85
2017-10-23T22:12:31.183Z,13.81
2017-10-23T22:13:44.606Z,13.89
2017-10-23T22:14:57.559Z,13.89
2017-10-23T22:16:11.499Z,13.88
2017-10-23T22:17:24.224Z,13.89
2017-10-23T22:18:36.605Z,13.91
2017-10-23T22:19:49.782Z,13.96
2017-10-23T22:21:03.317Z,13.87
2017-10-23T22:22:16.053Z,13.97
2017-10-23T22:23:28.236Z,13.89
2017-10-23T22:24:41.526Z,13.96
2017-10-23T22:25:54.296Z,13.99
2017-10-23T22:27:05.963Z,13.92
2017-10-23T22:28:18.729Z,13.89
2017-10-23T22:29:31.472Z,13.91
2017-10-23T22:30:43.701Z,13.82
2017-10-23T22:31:57.060Z,13.85
2017-10-23T22:33:09.827Z,13.82
2017-10-23T22:34:22.587Z,13.82
2017-10-23T22:35:34.803Z,13.79
2017-10-23T22:36:48.094Z,13.78
2017-10-23T22:38:00.844Z,13.73
2017-10-23T22:39:13.546Z,13.7
2017-10-23T22:40:26.847Z,13.84
2017-10-23T22:41:39.555Z,13.81
2017-10-23T22:42:52.831Z,13.84
2017-10-23T22:44:05.578Z,13.84
2017-10-23T22:45:18.925Z,13.85
2017-10-23T22:46:31.654Z,13.79
2017-10-23T22:47:43.831Z,13.87
2017-10-23T22:48:56.544Z,13.88
2017-10-23T22:50:08.762Z,13.85
2017-10-23T22:51:22.022Z,13.82
2017-10-23T22:52:34.735Z,13.91
2017-10-23T22:53:47.488Z,13.89
2017-10-23T22:55:00.766Z,14.02
2017-10-23T22:56:14.073Z,14.06
2017-10-23T22:57:25.225Z,14.02
2017-10-23T22:58:38.507Z,14.04
2017-10-23T22:59:51.778Z,13.99
2017-10-23T23:01:04.506Z,14
2017-10-23T23:02:17.843Z,13.97
2017-10-23T23:03:30.017Z,13.97
2017-10-23T23:04:42.747Z,14.04
2017-10-23T23:05:54.939Z,14.06
2017-10-23T23:07:07.690Z,14.02
2017-10-23T23:08:20.423Z,14.02
2017-10-23T23:09:33.173Z,13.99
2017-10-23T23:10:45.931Z,14.12
2017-10-23T23:11:58.669Z,14.12
2017-10-23T23:13:11.406Z,14.1
2017-10-23T23:14:24.652Z,14.06
2017-10-23T23:15:37.404Z,14.09
2017-10-23T23:16:49.587Z,14.06
2017-10-23T23:18:02.861Z,14.06
2017-10-23T23:19:15.035Z,14.07
2017-10-23T23:20:28.334Z,14.09
2017-10-23T23:21:40.542Z,14.06
2017-10-23T23:22:53.817Z,13.96
2017-10-23T23:24:06.550Z,13.97
2017-10-23T23:25:19.838Z,14
2017-10-23T23:26:32.049Z,14.02
2017-10-23T23:27:44.764Z,13.99
2017-10-23T23:28:57.488Z,14.02
2017-10-23T23:30:10.772Z,14.06
2017-10-23T23:31:22.978Z,14.06
2017-10-23T23:32:35.747Z,14.04
2017-10-23T23:33:48.999Z,14.04
2017-10-23T23:35:01.226Z,14.09
2017-10-23T23:36:12.911Z,14.04
2017-10-23T23:37:25.093Z,14.07
2017-10-23T23:38:37.282Z,14.04
2017-10-23T23:39:50.550Z,14.04
2017-10-23T23:41:03.260Z,14.1
2017-10-23T23:42:16.031Z,14.1
2017-10-23T23:43:29.305Z,14.04
2017-10-23T23:44:41.516Z,14.09
2017-10-23T23:45:54.270Z,14.09
2017-10-23T23:47:06.962Z,14.1
2017-10-23T23:48:20.249Z,14.07
2017-10-23T23:49:33.497Z,14.09
2017-10-23T23:50:45.711Z,14.2
2017-10-23T23:51:58.951Z,14.18
2017-10-23T23:53:11.149Z,14.24
2017-10-23T23:54:23.857Z,14.12
2017-10-23T23:55:37.093Z,14.07
2017-10-23T23:56:49.297Z,14.18
2017-10-23T23:58:02.019Z,14.22
2017-10-23T23:59:14.267Z,14.27
